Time;durP1;ratioP1;P1;durP2;ratioP2;P2;SDS_P1;SDS_P2;PMS_P1;PMS_P2;Temp;Humidity;BMP_temperature;BMP_pressure;BME280_temperature;BME280_humidity;BME280_pressure;Samples;Min_cycle;Max_cycle;Signal;HPM_P1;HPM_P2
2023/03/16 00:01:21;;;;;;;15.30;6.10;;;;;;;3.02;74.26;100120.53;1479955;88;22653;-81
2023/03/16 00:03:47;;;;;;;9.80;4.97;;;;;;;2.99;73.03;100128.56;1479456;88;21707;-82
2023/03/16 00:06:13;;;;;;;11.33;4.30;;;;;;;3.00;72.79;100127.64;1479464;88;21903;-82
2023/03/16 00:08:42;;;;;;;11.30;3.93;;;;;;;2.99;71.97;100134.27;1468525;88;22725;-82
2023/03/16 00:11:08;;;;;;;10.57;4.47;;;;;;;2.99;71.22;100138.19;1471517;88;22665;-82
2023/03/16 00:13:34;;;;;;;13.33;6.10;;;;;;;2.98;71.17;100137.36;1474533;88;22492;-82
2023/03/16 00:16:06;;;;;;;15.67;5.10;;;;;;;2.99;71.14;100138.19;1476194;88;21618;-81
2023/03/16 00:18:38;;;;;;;12.00;5.60;;;;;;;2.97;70.89;100148.77;1469413;88;21726;-80
2023/03/16 00:21:04;;;;;;;;;;;;;;;2.97;71.48;100154.47;1478457;88;21675;-80
2023/03/16 00:23:34;;;;;;;10.63;4.90;;;;;;;2.94;71.69;100155.52;1458617;88;20302;-81
2023/03/16 00:26:05;;;;;;;16.87;5.80;;;;;;;2.91;72.09;100150.50;1476643;88;21839;-82
2023/03/16 00:28:34;;;;;;;12.15;5.08;;;;;;;2.88;71.69;100152.02;1485493;88;21719;-83
2023/03/16 00:31:11;;;;;;;15.73;6.83;;;;;;;2.90;72.72;100150.95;1476767;88;21508;-82
2023/03/16 00:33:44;;;;;;;13.80;6.13;;;;;;;2.87;72.99;100149.02;1480455;88;21687;-81
2023/03/16 00:36:11;;;;;;;12.10;4.87;;;;;;;2.86;72.63;100151.28;1480046;88;22792;-82
2023/03/16 00:38:44;;;;;;;11.73;6.33;;;;;;;2.86;72.20;100149.97;1478690;88;21662;-82
2023/03/16 00:41:14;;;;;;;20.70;6.37;;;;;;;2.86;72.27;100153.89;1478689;88;21802;-81
2023/03/16 00:43:44;;;;;;;12.80;4.87;;;;;;;2.86;72.56;100155.20;1474196;88;21807;-80
2023/03/16 00:46:17;;;;;;;10.93;5.10;;;;;;;2.79;72.25;100157.85;1478340;88;21841;-81
2023/03/16 00:48:46;;;;;;;10.90;5.53;;;;;;;2.80;72.36;100147.78;1479897;88;22466;-80
2023/03/16 00:51:16;;;;;;;16.73;6.27;;;;;;;2.78;72.48;100156.19;1478945;88;21836;-81
2023/03/16 00:53:45;;;;;;;10.25;4.78;;;;;;;2.79;72.86;100156.55;1475726;88;21683;-82
2023/03/16 00:56:13;;;;;;;26.70;6.60;;;;;;;2.77;72.68;100170.20;1474053;88;21467;-80
2023/03/16 00:58:41;;;;;;;10.93;5.03;;;;;;;2.76;73.62;100160.67;1482988;88;22585;-83
2023/03/16 01:01:13;;;;;;;13.50;5.87;;;;;;;2.67;73.33;100164.27;1478302;88;21837;-82
2023/03/16 01:03:39;;;;;;;;;;;;;;;2.71;73.15;100155.30;1477747;88;21853;-81
2023/03/16 01:06:10;;;;;;;13.37;6.13;;;;;;;2.71;74.12;100159.70;1487982;88;20385;-82
2023/03/16 01:08:37;;;;;;;;;;;;;;;2.64;73.94;100160.56;1485899;88;21726;-81
2023/03/16 01:11:09;;;;;;;15.10;6.20;;;;;;;2.65;73.76;100171.88;1483422;88;20288;-82
2023/03/16 01:13:36;;;;;;;16.97;6.43;;;;;;;2.63;72.36;100179.80;1480131;88;22919;-81
2023/03/16 01:16:03;;;;;;;8.93;5.50;;;;;;;2.66;73.12;100166.53;1478954;88;21830;-81
2023/03/16 01:18:33;;;;;;;12.33;4.13;;;;;;;2.64;72.06;100189.30;1471247;88;21833;-82
2023/03/16 01:21:04;;;;;;;14.68;5.08;;;;;;;2.67;71.73;100189.57;1483659;88;21845;-81
2023/03/16 01:23:30;;;;;;;13.47;4.53;;;;;;;2.67;72.83;100187.79;1481052;88;22449;-82
2023/03/16 01:25:58;;;;;;;13.70;4.73;;;;;;;2.64;72.16;100193.22;1481675;88;22658;-79
2023/03/16 01:28:28;;;;;;;14.73;5.83;;;;;;;2.67;71.57;100198.24;1457318;88;21644;-81
2023/03/16 01:31:05;;;;;;;14.95;6.65;;;;;;;2.67;71.30;100200.86;1470830;88;21851;-81
2023/03/16 01:33:32;;;;;;;19.97;6.97;;;;;;;2.73;72.42;100205.31;1478348;88;21570;-81
2023/03/16 01:36:09;;;;;;;14.43;5.63;;;;;;;2.70;71.18;100211.13;1461725;88;21661;-81
2023/03/16 01:38:39;;;;;;;13.63;5.97;;;;;;;2.70;71.80;100211.13;1488027;88;21817;-81
2023/03/16 01:41:06;;;;;;;13.47;6.07;;;;;;;2.69;71.18;100210.75;1476559;88;21608;-81
2023/03/16 01:43:36;;;;;;;11.60;5.40;;;;;;;2.71;71.10;100212.80;1481235;88;21849;-81
2023/03/16 01:46:08;;;;;;;11.80;5.13;;;;;;;2.71;70.85;100211.48;1405589;88;21624;-81
2023/03/16 01:49:11;;;;;;;13.50;5.63;;;;;;;2.70;70.33;100207.66;1527865;88;21945;-81
2023/03/16 01:51:55;;;;;;;29.27;6.80;;;;;;;2.70;70.99;100208.52;1484665;88;22682;-80
2023/03/16 01:54:42;;;;;;;13.43;5.30;;;;;;;2.69;70.24;100214.66;1460971;88;21678;-81
2023/03/16 01:57:19;;;;;;;19.90;7.73;;;;;;;2.69;70.72;100219.89;1479266;88;22552;-82
2023/03/16 02:00:17;;;;;;;14.90;3.97;;;;;;;2.68;71.05;100226.06;1471422;88;21792;-82
2023/03/16 02:02:42;;;;;;;16.30;6.13;;;;;;;2.65;70.95;100224.14;1480672;88;22506;-81
2023/03/16 02:05:17;;;;;;;12.47;5.07;;;;;;;2.65;70.45;100228.05;1486532;88;22638;-81
2023/03/16 02:07:50;;;;;;;15.27;6.00;;;;;;;2.64;69.77;100214.13;1455892;88;21893;-81
2023/03/16 02:10:19;;;;;;;14.33;5.43;;;;;;;2.65;70.97;100221.05;1472403;88;21821;-81
2023/03/16 02:12:46;;;;;;;15.63;6.73;;;;;;;2.65;69.64;100219.74;1476287;88;21678;-81
2023/03/16 02:15:13;;;;;;;28.80;5.33;;;;;;;2.69;69.73;100214.66;1471491;88;22546;-80
2023/03/16 02:17:43;;;;;;;16.73;5.90;;;;;;;2.68;68.51;100215.61;1494533;88;21765;-81
2023/03/16 02:20:44;;;;;;;10.63;4.90;;;;;;;2.71;68.62;100224.55;1460681;88;21755;-78
2023/03/16 02:23:17;;;;;;;12.82;4.53;;;;;;;2.70;68.57;100227.26;1485025;88;21852;-78
2023/03/16 02:26:16;;;;;;;15.67;5.43;;;;;;;2.68;69.64;100233.91;1477329;88;21480;-77
2023/03/16 02:29:28;;;;;;;10.67;4.23;;;;;;;2.68;69.49;100222.63;1477436;88;21794;-79
2023/03/16 02:31:57;;;;;;;12.17;4.73;;;;;;;2.68;68.94;100222.63;1480018;88;21762;-79
2023/03/16 02:34:25;;;;;;;13.33;5.20;;;;;;;2.68;68.97;100227.37;1484982;88;21523;-78
2023/03/16 02:36:53;;;;;;;11.67;4.77;;;;;;;2.62;69.00;100219.95;1482172;88;21659;-79
2023/03/16 02:39:19;;;;;;;14.50;5.83;;;;;;;2.60;69.01;100214.45;1457934;88;21795;-79
2023/03/16 02:41:46;;;;;;;11.33;4.10;;;;;;;2.59;69.61;100208.39;1456707;88;21607;-80
2023/03/16 02:44:32;;;;;;;10.20;6.10;;;;;;;2.57;70.20;100211.57;1479415;88;21574;-79
2023/03/16 02:47:03;;;;;;;12.73;5.10;;;;;;;2.56;70.18;100217.75;1480422;88;21766;-81
2023/03/16 02:49:41;;;;;;;11.13;5.30;;;;;;;2.56;70.39;100220.80;1472913;88;21775;-81
2023/03/16 02:52:09;;;;;;;10.40;4.73;;;;;;;2.51;70.27;100226.34;1483939;88;21524;-81
2023/03/16 02:54:35;;;;;;;12.77;5.77;;;;;;;2.48;70.27;100225.25;1487823;88;21545;-81
2023/03/16 02:57:02;;;;;;;11.53;5.13;;;;;;;2.48;71.11;100235.22;1485634;88;22682;-81
2023/03/16 02:59:28;;;;;;;15.80;5.80;;;;;;;2.43;70.95;100236.45;1479986;88;21646;-80
2023/03/16 03:01:55;;;;;;;11.33;5.13;;;;;;;2.44;71.34;100240.73;1479713;88;21846;-81
2023/03/16 03:04:23;;;;;;;14.53;6.67;;;;;;;2.40;70.55;100240.10;1483277;88;21671;-82
2023/03/16 03:06:51;;;;;;;12.67;5.53;;;;;;;2.39;71.52;100245.45;1483207;88;21681;-80
2023/03/16 03:09:18;;;;;;;16.47;5.90;;;;;;;2.38;71.36;100245.05;1478701;88;21709;-79
2023/03/16 03:11:49;;;;;;;13.03;6.37;;;;;;;2.33;71.86;100243.20;1480062;88;21877;-81
2023/03/16 03:14:15;;;;;;;14.28;4.58;;;;;;;2.32;71.93;100249.38;1487032;88;21736;-81
2023/03/16 03:16:45;;;;;;;9.53;4.57;;;;;;;2.32;71.99;100258.05;1474041;88;22486;-81
2023/03/16 03:19:10;;;;;;;20.23;5.60;;;;;;;2.29;72.10;100260.02;1482574;88;21774;-81
2023/03/16 03:21:36;;;;;;;12.70;5.87;;;;;;;2.29;72.30;100251.71;1482114;88;21677;-81
2023/03/16 03:24:04;;;;;;;10.73;5.23;;;;;;;2.31;72.29;100261.60;1472090;88;22698;-81
2023/03/16 03:26:31;;;;;;;10.27;4.20;;;;;;;2.28;72.21;100257.05;1478812;88;21705;-81
2023/03/16 03:28:57;;;;;;;18.90;5.97;;;;;;;2.26;71.85;100268.89;1474924;88;21909;-81
2023/03/16 03:31:23;;;;;;;13.63;4.50;;;;;;;2.29;71.59;100275.22;1470624;88;21582;-81
2023/03/16 03:33:49;;;;;;;16.17;6.23;;;;;;;2.26;71.99;100284.08;1457610;88;21627;-81
2023/03/16 03:36:16;;;;;;;14.67;4.83;;;;;;;2.26;72.23;100277.55;1472189;88;21719;-81
2023/03/16 03:38:42;;;;;;;14.43;4.87;;;;;;;2.23;71.89;100282.97;1471454;88;21735;-81
2023/03/16 03:41:09;;;;;;;12.30;5.17;;;;;;;2.27;72.06;100287.52;1454155;88;22020;-81
2023/03/16 03:43:35;;;;;;;15.50;5.70;;;;;;;2.29;71.71;100294.80;1474706;88;21646;-82
2023/03/16 03:46:02;;;;;;;15.97;6.50;;;;;;;2.28;71.47;100302.75;1470484;88;22553;-82
2023/03/16 03:48:29;;;;;;;14.43;6.50;;;;;;;2.29;71.65;100303.95;1479587;88;21551;-82
2023/03/16 03:50:55;;;;;;;16.77;5.63;;;;;;;2.31;72.21;100308.61;1479029;88;22504;-82
2023/03/16 03:53:21;;;;;;;10.90;5.33;;;;;;;2.30;71.79;100304.30;1460567;88;21603;-82
2023/03/16 03:55:48;;;;;;;12.07;4.97;;;;;;;2.28;71.60;100304.06;1470451;88;21558;-82
2023/03/16 03:58:14;;;;;;;13.67;5.17;;;;;;;2.28;71.77;100302.75;1480130;88;21640;-82
2023/03/16 04:00:41;;;;;;;15.23;5.87;;;;;;;2.29;71.81;100310.95;1477071;88;21782;-81
2023/03/16 04:03:07;;;;;;;16.33;5.93;;;;;;;2.26;71.39;100311.50;1470487;88;22761;-80
2023/03/16 04:05:34;;;;;;;10.47;5.47;;;;;;;2.23;71.25;100313.00;1459970;88;21696;-82
2023/03/16 04:08:00;;;;;;;21.60;4.83;;;;;;;2.24;71.22;100312.09;1484256;88;21862;-81
2023/03/16 04:10:29;;;;;;;14.23;5.77;;;;;;;2.24;70.83;100317.31;1472325;88;22602;-81
2023/03/16 04:12:56;;;;;;;16.23;4.60;;;;;;;2.26;71.49;100315.42;1481769;88;22403;-82
2023/03/16 04:15:23;;;;;;;15.50;5.60;;;;;;;2.26;71.30;100322.42;1474833;88;21814;-82
2023/03/16 04:17:51;;;;;;;11.13;4.60;;;;;;;2.25;71.75;100327.28;1471687;88;22512;-82
2023/03/16 04:20:18;;;;;;;10.90;5.40;;;;;;;2.20;71.61;100324.13;1468171;88;21839;-82
2023/03/16 04:22:46;;;;;;;13.30;5.53;;;;;;;2.18;71.79;100328.11;1473134;88;21878;-81
2023/03/16 04:25:16;;;;;;;11.17;4.60;;;;;;;2.18;71.29;100330.73;1473785;88;21751;-82
2023/03/16 04:27:45;;;;;;;13.58;5.65;;;;;;;2.16;70.88;100328.70;1469364;88;21639;-82
2023/03/16 04:30:13;;;;;;;10.47;4.13;;;;;;;2.17;71.46;100340.81;1475325;88;21510;-82
2023/03/16 04:32:40;;;;;;;17.77;5.83;;;;;;;2.14;71.10;100337.09;1459482;88;21765;-81
2023/03/16 04:35:07;;;;;;;14.07;6.33;;;;;;;2.19;70.95;100344.17;1480308;88;21731;-82
2023/03/16 04:37:34;;;;;;;14.97;4.80;;;;;;;2.15;71.32;100341.37;1470733;88;21713;-81
2023/03/16 04:40:08;;;;;;;19.60;6.07;;;;;;;2.15;70.39;100345.28;1469832;88;22683;-81
2023/03/16 04:42:28;;;;;;;11.63;4.80;;;;;;;2.21;71.01;100351.42;1475752;88;21893;-81
2023/03/16 04:44:54;;;;;;;12.63;5.00;;;;;;;2.15;70.61;100355.73;1473961;88;22617;-81
2023/03/16 04:47:22;;;;;;;11.13;4.43;;;;;;;2.14;71.20;100360.59;1477632;88;21889;-80
2023/03/16 04:49:48;;;;;;;15.37;5.43;;;;;;;2.14;70.91;100359.28;1472307;88;21638;-82
2023/03/16 04:52:14;;;;;;;9.87;4.13;;;;;;;2.13;70.54;100362.84;1465495;88;21746;-81
2023/03/16 04:54:41;;;;;;;11.30;4.77;;;;;;;2.14;70.40;100373.64;1473318;88;21722;-83
2023/03/16 04:57:07;;;;;;;15.63;6.30;;;;;;;2.14;70.47;100368.42;1476933;88;21653;-80
2023/03/16 04:59:33;;;;;;;7.83;3.87;;;;;;;2.17;70.29;100378.67;1478264;88;21546;-80
2023/03/16 05:02:00;;;;;;;12.63;4.60;;;;;;;2.13;69.59;100390.25;1476646;88;22612;-81
2023/03/16 05:04:26;;;;;;;14.03;5.63;;;;;;;2.18;69.90;100389.95;1470407;88;21595;-79
2023/03/16 05:06:52;;;;;;;17.77;6.23;;;;;;;2.21;69.65;100391.06;1473982;88;21626;-80
2023/03/16 05:09:19;;;;;;;15.77;5.40;;;;;;;2.24;69.70;100394.80;1467593;88;21835;-80
2023/03/16 05:11:45;;;;;;;16.23;5.57;;;;;;;2.24;69.66;100398.27;1459208;88;21970;-81
2023/03/16 05:14:12;;;;;;;8.60;4.17;;;;;;;2.25;69.79;100407.77;1478858;88;21881;-81
2023/03/16 05:16:38;;;;;;;13.73;4.10;;;;;;;2.26;69.56;100406.83;1477218;88;22535;-80
2023/03/16 05:19:04;;;;;;;12.90;4.07;;;;;;;2.25;69.04;100411.69;1474808;88;21876;-81
2023/03/16 05:21:30;;;;;;;11.20;4.00;;;;;;;2.28;69.48;100415.05;1463872;88;21683;-80
2023/03/16 05:23:57;;;;;;;12.60;4.40;;;;;;;2.25;69.36;100414.30;1457366;88;22601;-80
2023/03/16 05:26:24;;;;;;;12.57;3.93;;;;;;;2.26;69.90;100415.13;1498899;88;21740;-81
2023/03/16 05:28:51;;;;;;;11.20;4.13;;;;;;;2.28;70.25;100424.19;1480395;88;21654;-81
2023/03/16 05:31:18;;;;;;;11.73;3.50;;;;;;;2.26;69.10;100418.58;1483017;88;21854;-81
2023/03/16 05:33:44;;;;;;;9.47;3.93;;;;;;;2.30;69.75;100423.61;1486814;88;21677;-81
2023/03/16 05:36:11;;;;;;;10.20;5.47;;;;;;;2.30;70.25;100424.91;1481657;87;21719;-80
2023/03/16 05:38:38;;;;;;;15.47;4.50;;;;;;;2.30;70.36;100430.14;1483081;88;22582;-80
2023/03/16 05:41:04;;;;;;;10.40;4.30;;;;;;;2.32;70.47;100440.03;1478517;87;21610;-81
2023/03/16 05:43:31;;;;;;;10.03;4.30;;;;;;;2.33;70.19;100436.47;1476050;88;21938;-82
2023/03/16 05:45:57;;;;;;;15.27;4.30;;;;;;;2.34;70.04;100441.62;1493198;88;22274;-80
2023/03/16 05:48:27;;;;;;;14.00;4.90;;;;;;;2.41;70.76;100443.38;1489142;88;22577;-81
2023/03/16 05:50:52;;;;;;;14.63;3.70;;;;;;;2.36;70.29;100434.53;1481738;88;21893;-78
2023/03/16 05:53:19;;;;;;;11.53;3.67;;;;;;;2.39;70.14;100445.27;1484503;87;22715;-78
2023/03/16 05:55:52;;;;;;;14.27;6.03;;;;;;;2.42;70.15;100454.22;1483154;88;21673;-78
2023/03/16 05:58:20;;;;;;;15.17;4.80;;;;;;;2.50;70.50;100454.55;1477580;88;21880;-79
2023/03/16 06:00:46;;;;;;;16.23;5.00;;;;;;;2.50;70.37;100459.78;1484367;88;22613;-78
2023/03/16 06:03:12;;;;;;;13.33;5.43;;;;;;;2.51;70.31;100458.87;1482850;88;21704;-81
2023/03/16 06:05:38;;;;;;;19.77;6.57;;;;;;;2.53;70.08;100458.75;1479489;88;21740;-79
2023/03/16 06:08:04;;;;;;;12.40;5.30;;;;;;;2.59;69.94;100460.54;1487275;87;22508;-80
2023/03/16 06:10:31;;;;;;;10.77;4.60;;;;;;;2.62;69.86;100460.34;1483282;87;21775;-83
2023/03/16 06:12:57;;;;;;;15.67;4.90;;;;;;;2.66;70.11;100457.90;1485828;88;23099;-83
2023/03/16 06:15:25;;;;;;;22.50;7.50;;;;;;;2.71;69.34;100471.52;1478490;88;21800;-80
2023/03/16 06:17:51;;;;;;;11.20;5.23;;;;;;;2.71;69.34;100471.52;1460044;88;22876;-81
2023/03/16 06:20:18;;;;;;;12.00;5.03;;;;;;;2.80;69.39;100477.95;1482967;87;21819;-81
2023/03/16 06:22:44;;;;;;;15.13;5.10;;;;;;;2.83;69.92;100485.59;1484903;88;21892;-81
2023/03/16 06:25:13;;;;;;;21.00;6.13;;;;;;;2.83;68.31;100474.30;1471144;88;21911;-80
2023/03/16 06:27:39;;;;;;;11.80;5.87;;;;;;;2.83;68.31;100487.34;1467855;88;21772;-79
2023/03/16 06:30:08;;;;;;;19.00;4.63;;;;;;;2.90;68.15;100487.34;1475884;88;22169;-80
2023/03/16 06:32:35;;;;;;;16.30;5.77;;;;;;;2.98;68.07;100498.16;1397043;88;21911;-80
2023/03/16 06:35:04;;;;;;;9.50;5.00;;;;;;;2.98;68.07;100498.16;1404619;88;21963;-80
2023/03/16 06:37:31;;;;;;;16.67;5.83;;;;;;;2.92;67.63;100484.17;1536512;88;22558;-79
2023/03/16 06:39:57;;;;;;;19.27;6.17;;;;;;;3.12;67.34;100502.52;1395386;88;21915;-76
2023/03/16 06:42:24;;;;;;;16.27;6.00;;;;;;;3.12;67.34;100502.52;1443787;88;22386;-79
2023/03/16 06:44:51;;;;;;;11.67;5.40;;;;;;;3.24;68.46;100504.81;1468422;88;22188;-79
2023/03/16 06:47:19;;;;;;;20.73;5.90;;;;;;;3.26;67.28;100518.17;1466713;88;22179;-81
2023/03/16 06:49:54;;;;;;;16.17;5.80;;;;;;;3.27;66.75;100519.84;1394232;88;23003;-81
2023/03/16 06:52:13;;;;;;;16.90;6.50;;;;;;;3.24;66.26;100520.51;1445158;88;22164;-80
2023/03/16 06:54:40;;;;;;;15.87;6.13;;;;;;;3.33;66.90;100520.74;1470026;88;22121;-80
2023/03/16 06:57:07;;;;;;;14.40;6.57;;;;;;;3.31;65.88;100527.01;1468614;88;22303;-82
2023/03/16 06:59:33;;;;;;;15.50;5.40;;;;;;;3.32;66.19;100521.69;1477186;88;22149;-82
2023/03/16 07:02:00;;;;;;;10.13;4.70;;;;;;;3.60;66.45;100539.06;1469200;88;22481;-79
2023/03/16 07:04:27;;;;;;;30.50;8.20;;;;;;;3.60;66.45;100539.06;1470156;88;22181;-81
2023/03/16 07:06:53;;;;;;;16.73;6.80;;;;;;;3.50;64.71;100539.75;1469344;88;22158;-80
2023/03/16 07:09:20;;;;;;;15.80;7.53;;;;;;;3.65;65.22;100543.98;1467969;88;23206;-80
2023/03/16 07:11:47;;;;;;;14.67;5.80;;;;;;;3.81;65.74;100552.52;1471745;88;22158;-81
2023/03/16 07:14:13;;;;;;;17.80;7.30;;;;;;;3.75;63.73;100552.92;1467824;88;23095;-80
2023/03/16 07:16:39;;;;;;;16.03;6.77;;;;;;;3.70;63.50;100547.62;1471378;88;22090;-81
2023/03/16 07:19:05;;;;;;;12.43;4.90;;;;;;;3.72;63.89;100545.75;1453926;88;22179;-82
2023/03/16 07:21:38;;;;;;;21.77;6.37;;;;;;;3.63;63.86;100553.73;1464639;88;22317;-80
2023/03/16 07:24:00;;;;;;;16.63;5.63;;;;;;;3.60;63.31;100549.53;1462595;88;23067;-84
2023/03/16 07:26:26;;;;;;;13.30;5.03;;;;;;;3.64;64.14;100552.78;1467675;88;22550;-81
2023/03/16 07:28:52;;;;;;;13.93;5.53;;;;;;;3.51;63.16;100556.69;1465574;88;22119;-80
2023/03/16 07:31:18;;;;;;;15.00;6.13;;;;;;;3.58;64.72;100552.71;1471017;88;22392;-80
2023/03/16 07:33:54;;;;;;;12.37;6.20;;;;;;;3.58;64.72;100552.71;1470744;88;22142;-81
2023/03/16 07:36:20;;;;;;;14.67;5.30;;;;;;;3.58;63.00;100571.03;1472932;88;22175;-80
2023/03/16 07:38:46;;;;;;;13.20;4.80;;;;;;;3.66;64.46;100565.78;1476211;88;22074;-79
2023/03/16 07:41:12;;;;;;;13.87;5.33;;;;;;;3.59;63.57;100563.54;1467844;88;22270;-81
2023/03/16 07:43:39;;;;;;;17.30;5.90;;;;;;;3.63;63.39;100574.67;1479820;88;23457;-81
2023/03/16 07:46:05;;;;;;;12.17;5.67;;;;;;;3.61;64.50;100572.14;1469455;88;23207;-82
2023/03/16 07:48:31;;;;;;;10.47;5.10;;;;;;;3.60;64.24;100573.09;1464295;88;22071;-80
2023/03/16 07:50:58;;;;;;;17.90;6.50;;;;;;;3.65;63.88;100590.27;1481639;88;23143;-81
2023/03/16 07:53:24;;;;;;;13.03;5.63;;;;;;;3.78;64.61;100575.45;1476643;88;22069;-82
2023/03/16 07:55:50;;;;;;;13.83;6.03;;;;;;;3.77;63.76;100581.16;1459436;88;22256;-80
2023/03/16 07:58:17;;;;;;;15.00;6.20;;;;;;;3.82;64.27;100585.60;1469571;88;23183;-80
2023/03/16 08:00:45;;;;;;;15.43;5.40;;;;;;;3.93;64.22;100579.67;1470410;88;23153;-82
2023/03/16 08:03:11;;;;;;;11.80;5.67;;;;;;;4.03;63.59;100587.77;1472101;88;22083;-81
2023/03/16 08:05:37;;;;;;;12.27;5.30;;;;;;;4.16;63.44;100589.92;1459295;88;22345;-81
2023/03/16 08:08:08;;;;;;;14.37;4.87;;;;;;;4.25;63.87;100594.55;1477154;88;22292;-81
2023/03/16 08:10:33;;;;;;;26.17;6.80;;;;;;;4.27;63.99;100595.77;1474437;88;22155;-80
2023/03/16 08:13:01;;;;;;;15.83;6.63;;;;;;;4.35;63.55;100598.72;1464304;88;21444;-82
2023/03/16 08:15:27;;;;;;;20.60;7.17;;;;;;;4.39;63.63;100592.79;1467331;88;21444;-82
2023/03/16 08:17:54;;;;;;;16.80;6.43;;;;;;;4.36;62.21;100587.28;1470410;88;22347;-82
2023/03/16 08:20:20;;;;;;;15.13;6.40;;;;;;;4.36;62.21;100587.28;1469793;88;21629;-80
2023/03/16 08:22:48;;;;;;;12.40;7.27;;;;;;;4.29;62.07;100609.61;1469365;88;21554;-81
2023/03/16 08:25:15;;;;;;;18.60;6.53;;;;;;;4.19;62.60;100617.70;1478345;88;21488;-81
2023/03/16 08:27:42;;;;;;;12.87;5.63;;;;;;;4.24;62.78;100612.53;1479708;88;21579;-81
2023/03/16 08:30:11;;;;;;;14.40;6.40;;;;;;;4.27;63.24;100604.94;1482027;87;21591;-82
2023/03/16 08:32:38;;;;;;;11.33;4.47;;;;;;;4.44;62.55;100609.87;1402880;87;21363;-80
2023/03/16 08:35:08;;;;;;;15.63;6.37;;;;;;;4.44;62.62;100605.95;1389144;88;21311;-81
2023/03/16 08:37:36;;;;;;;18.23;7.77;;;;;;;4.21;62.21;100614.05;1545487;88;21356;-81
2023/03/16 08:40:05;;;;;;;15.30;5.83;;;;;;;4.28;62.16;100615.77;1442670;87;22458;-81
2023/03/16 08:42:31;;;;;;;11.80;6.13;;;;;;;4.23;62.10;100614.79;1473880;88;21457;-81
2023/03/16 08:44:59;;;;;;;12.73;6.57;;;;;;;4.39;62.55;100616.37;1473014;88;22381;-81
2023/03/16 08:47:25;;;;;;;12.10;6.00;;;;;;;4.39;62.55;100616.37;1472654;88;21554;-81
2023/03/16 08:49:51;;;;;;;23.97;10.47;;;;;;;4.39;62.56;100618.52;1474554;88;21539;-82
2023/03/16 08:52:17;;;;;;;20.07;8.87;;;;;;;4.41;63.14;100623.20;1473115;88;23638;-81
2023/03/16 08:54:44;;;;;;;18.67;8.67;;;;;;;4.37;63.23;100627.42;1473074;88;21458;-82
2023/03/16 08:57:11;;;;;;;12.40;6.17;;;;;;;4.40;62.30;100625.19;1473333;88;22232;-82
2023/03/16 08:59:37;;;;;;;14.93;5.77;;;;;;;4.50;63.99;100625.19;1480866;88;21583;-81
2023/03/16 09:02:03;;;;;;;14.67;6.83;;;;;;;4.25;59.95;100629.08;1470808;88;22324;-79
2023/03/16 09:04:31;;;;;;;19.03;7.63;;;;;;;4.52;62.21;100640.34;1473763;88;21466;-81
2023/03/16 09:06:57;;;;;;;17.80;6.00;;;;;;;4.52;62.21;100637.25;1475825;88;21790;-81
2023/03/16 09:09:24;;;;;;;15.33;6.57;;;;;;;4.40;62.73;100637.25;1470309;88;21503;-80
2023/03/16 09:11:51;;;;;;;18.23;6.63;;;;;;;4.60;63.41;100652.91;1475213;88;21617;-80
2023/03/16 09:14:17;;;;;;;20.80;7.60;;;;;;;4.60;63.41;100652.91;1475240;88;22206;-81
2023/03/16 09:16:45;;;;;;;17.27;6.20;;;;;;;4.64;61.98;100648.33;1475433;88;21555;-80
2023/03/16 09:19:12;;;;;;;10.77;5.70;;;;;;;4.69;60.84;100650.14;1473450;88;21525;-79
2023/03/16 09:21:38;;;;;;;14.03;5.87;;;;;;;4.81;60.90;100662.92;1472133;88;22264;-81
2023/03/16 09:24:07;;;;;;;16.87;6.40;;;;;;;4.69;60.26;100651.45;1475096;88;21562;-79
2023/03/16 09:26:34;;;;;;;11.73;5.23;;;;;;;4.64;58.81;100658.81;1469487;88;21451;-80
2023/03/16 09:29:02;;;;;;;13.53;5.87;;;;;;;4.80;59.88;100648.11;1393397;88;21340;-80
2023/03/16 09:31:28;;;;;;;11.00;4.77;;;;;;;5.00;61.60;100665.09;1394943;88;21542;-80
2023/03/16 09:33:54;;;;;;;15.90;6.10;;;;;;;5.02;59.71;100665.84;1400838;88;21408;-81
2023/03/16 09:36:21;;;;;;;15.00;6.17;;;;;;;5.03;59.02;100680.63;1532614;88;21752;-80
2023/03/16 09:38:47;;;;;;;12.27;5.63;;;;;;;5.17;57.52;100665.59;1395530;88;21407;-80
2023/03/16 09:41:41;;;;;;;10.50;5.17;;;;;;;5.45;59.92;100677.27;1401639;88;21340;-80
2023/03/16 09:44:50;;;;;;;12.47;5.37;;;;;;;5.64;58.31;100659.27;1391819;88;22200;-80
2023/03/16 09:47:31;;;;;;;10.63;4.42;;;;;;;5.68;56.95;100658.56;1538632;89;21372;-81
2023/03/16 09:50:01;;;;;;;13.03;4.57;;;;;;;5.70;54.98;100661.45;1538525;89;21394;-81
2023/03/16 09:52:45;;;;;;;9.50;4.90;;;;;;;5.49;54.39;100670.84;1377891;89;21361;-80
2023/03/16 09:55:34;;;;;;;11.60;4.40;;;;;;;5.65;55.77;100670.13;1495038;90;22393;-81
2023/03/16 09:58:05;;;;;;;16.13;5.13;;;;;;;5.59;54.77;100671.41;1446582;89;21409;-78
2023/03/16 10:00:44;;;;;;;6.83;3.93;;;;;;;5.53;54.57;100684.14;1454886;89;22450;-80
2023/03/16 10:03:45;;;;;;;6.40;3.07;;;;;;;5.68;56.29;100668.59;1449634;89;21710;-80
2023/03/16 10:06:14;;;;;;;10.03;3.90;;;;;;;5.67;53.94;100674.80;1458770;89;21489;-80
2023/03/16 10:08:55;;;;;;;4.67;3.23;;;;;;;5.84;54.09;100686.25;1379556;89;22244;-80
2023/03/16 10:11:38;;;;;;;8.23;3.85;;;;;;;5.95;53.05;100684.16;1379684;89;21600;-81
2023/03/16 10:14:40;;;;;;;7.20;3.80;;;;;;;5.71;52.41;100685.44;1538333;89;21365;-80
2023/03/16 10:17:20;;;;;;;9.70;3.57;;;;;;;5.57;53.17;100700.03;1452991;89;21372;-80
2023/03/16 10:20:00;;;;;;;7.30;3.40;;;;;;;5.59;52.84;100710.79;1383273;89;21408;-81
2023/03/16 10:22:34;;;;;;;10.75;3.62;;;;;;;5.68;53.24;100686.97;1382633;88;22222;-80
2023/03/16 10:25:21;;;;;;;12.43;3.97;;;;;;;5.63;52.70;100695.65;1441011;88;21414;-80
2023/03/16 10:27:48;;;;;;;10.90;4.63;;;;;;;5.87;52.71;100683.40;1394061;90;21392;-80
2023/03/16 10:30:32;;;;;;;7.20;3.10;;;;;;;6.10;54.24;100694.06;1397997;88;21518;-81
2023/03/16 10:33:25;;;;;;;5.53;2.93;;;;;;;6.19;52.22;100697.32;1552842;88;21311;-80
2023/03/16 10:36:14;;;;;;;7.37;3.03;;;;;;;6.12;52.52;100692.13;1558937;88;21274;-79
2023/03/16 10:38:49;;;;;;;6.13;3.10;;;;;;;6.17;51.30;100695.75;1482331;88;22427;-80
2023/03/16 10:41:24;;;;;;;9.00;3.53;;;;;;;6.50;51.80;100695.89;1395291;89;21371;-81
2023/03/16 10:43:54;;;;;;;6.13;2.47;;;;;;;6.42;49.89;100698.25;1559072;88;21267;-81
2023/03/16 10:46:22;;;;;;;11.70;4.13;;;;;;;6.73;51.26;100687.58;1401209;88;21526;-79
2023/03/16 10:48:58;;;;;;;8.33;3.60;;;;;;;6.85;51.94;100690.20;1558904;88;22221;-81
2023/03/16 10:51:28;;;;;;;8.40;4.40;;;;;;;7.00;50.76;100694.31;1558778;88;21428;-81
2023/03/16 10:53:57;;;;;;;;;;;;;;;7.19;49.72;100694.58;1405842;88;22433;-80
2023/03/16 10:56:24;;;;;;;12.13;4.47;;;;;;;7.11;48.65;100696.12;1395659;88;20376;-80
2023/03/16 10:58:55;;;;;;;9.33;2.90;;;;;;;7.42;48.71;100694.55;1397483;88;21529;-81
2023/03/16 11:01:28;;;;;;;11.63;3.40;;;;;;;7.12;47.54;100693.36;1552848;88;21422;-80
2023/03/16 11:03:58;;;;;;;9.57;3.13;;;;;;;7.20;49.16;100690.97;1552728;88;22258;-81
2023/03/16 11:06:32;;;;;;;7.37;2.67;;;;;;;6.80;48.03;100697.15;1420413;88;21451;-82
2023/03/16 11:09:13;;;;;;;13.73;2.50;;;;;;;6.32;48.68;100702.02;1471591;88;22548;-81
2023/03/16 11:11:45;;;;;;;4.73;2.23;;;;;;;6.20;49.66;100711.30;1474885;88;21444;-79
2023/03/16 11:14:17;;;;;;;8.20;2.87;;;;;;;6.25;48.80;100716.58;1473227;88;21474;-80
2023/03/16 11:17:01;;;;;;;9.93;3.20;;;;;;;6.45;49.49;100709.02;1514399;88;21488;-79
2023/03/16 11:19:35;;;;;;;7.50;3.13;;;;;;;6.67;49.17;100699.02;1471220;88;21576;-81
2023/03/16 11:22:18;;;;;;;8.07;3.73;;;;;;;7.05;50.20;100710.59;1478219;88;21532;-81
2023/03/16 11:25:09;;;;;;;6.93;2.87;;;;;;;6.88;47.06;100710.56;1447189;88;21510;-82
2023/03/16 11:27:43;;;;;;;15.25;4.53;;;;;;;6.59;48.16;100700.94;1468942;88;21437;-81
2023/03/16 11:30:18;;;;;;;10.90;3.60;;;;;;;6.75;49.29;100702.75;1473864;88;21609;-80
2023/03/16 11:32:52;;;;;;;5.83;2.40;;;;;;;7.18;51.42;100711.30;1468304;88;22383;-82
2023/03/16 11:35:24;;;;;;;9.07;3.03;;;;;;;6.83;49.68;100707.92;1468732;88;21695;-82
2023/03/16 11:38:05;;;;;;;7.77;2.63;;;;;;;6.77;49.56;100706.11;1466907;88;21554;-82
2023/03/16 11:40:44;;;;;;;;;;;;;;;7.22;49.32;100704.86;1477895;88;22443;-81